createdAt,value
2017-11-07T00:00:09.182Z,6.27
2017-11-07T00:00:35.299Z,6.16
2017-11-07T00:01:01.423Z,6.14
2017-11-07T00:01:27.559Z,6.05
2017-11-07T00:01:53.674Z,6.12
2017-11-07T00:02:19.792Z,6.08
2017-11-07T00:02:45.912Z,6.08
2017-11-07T00:03:12.044Z,6.07
2017-11-07T00:03:38.188Z,6.08
2017-11-07T00:04:04.310Z,6.05
2017-11-07T00:04:30.426Z,6.04
2017-11-07T00:04:56.555Z,6.11
2017-11-07T00:05:22.688Z,6.24
2017-11-07T00:05:48.813Z,6.28
2017-11-07T00:06:14.931Z,6.26
2017-11-07T00:06:41.050Z,6.26
2017-11-07T00:07:07.175Z,6.3
2017-11-07T00:07:33.294Z,6.24
2017-11-07T00:07:59.414Z,6.22
2017-11-07T00:08:25.539Z,6.39
2017-11-07T00:08:51.675Z,6.31
2017-11-07T00:09:17.799Z,6.38
2017-11-07T00:09:43.924Z,6.35
2017-11-07T00:10:10.032Z,6.39
2017-11-07T00:10:36.158Z,6.35
2017-11-07T00:11:02.281Z,6.41
2017-11-07T00:11:28.401Z,6.31
2017-11-07T00:11:54.512Z,6.24
2017-11-07T00:12:20.634Z,6.27
2017-11-07T00:12:46.748Z,6.19
2017-11-07T00:13:12.864Z,6.17
2017-11-07T00:13:38.988Z,6.2
2017-11-07T00:14:05.114Z,6.28
2017-11-07T00:14:31.227Z,6.31
2017-11-07T00:14:57.352Z,6.27
2017-11-07T00:15:23.487Z,6.27
2017-11-07T00:15:49.611Z,6.35
2017-11-07T00:16:15.730Z,6.36
2017-11-07T00:16:41.845Z,6.35
2017-11-07T00:17:07.970Z,6.33
2017-11-07T00:17:34.089Z,6.33
2017-11-07T00:18:00.203Z,6.45
2017-11-07T00:18:26.324Z,6.44
2017-11-07T00:18:52.448Z,6.44
2017-11-07T00:19:18.562Z,6.44
2017-11-07T00:19:44.687Z,6.49
2017-11-07T00:20:10.808Z,6.51
2017-11-07T00:20:36.928Z,6.51
2017-11-07T00:21:03.052Z,6.56
2017-11-07T00:21:29.171Z,6.6
2017-11-07T00:21:55.288Z,6.6
2017-11-07T00:22:21.404Z,6.74
2017-11-07T00:22:47.529Z,6.62
2017-11-07T00:23:13.664Z,6.67
2017-11-07T00:23:39.782Z,6.67
2017-11-07T00:24:05.924Z,6.64
2017-11-07T00:24:32.067Z,6.74
2017-11-07T00:24:58.183Z,6.74
2017-11-07T00:25:24.310Z,6.63
2017-11-07T00:25:50.425Z,6.6
2017-11-07T00:26:16.539Z,6.6
2017-11-07T00:26:42.657Z,6.72
2017-11-07T00:27:08.777Z,6.75
2017-11-07T00:27:34.901Z,6.77
2017-11-07T00:28:01.023Z,6.78
2017-11-07T00:28:27.144Z,6.75
2017-11-07T00:28:53.270Z,6.74
2017-11-07T00:29:19.386Z,6.72
2017-11-07T00:29:45.504Z,6.6
2017-11-07T00:30:11.648Z,6.66
2017-11-07T00:30:37.771Z,6.59
2017-11-07T00:31:03.895Z,6.6
2017-11-07T00:31:30.011Z,6.57
2017-11-07T00:31:56.131Z,6.51
2017-11-07T00:32:22.246Z,6.49
2017-11-07T00:32:48.389Z,6.45
2017-11-07T00:33:14.487Z,6.46
2017-11-07T00:33:40.613Z,6.48
2017-11-07T00:34:06.728Z,6.42
2017-11-07T00:34:32.845Z,6.39
2017-11-07T00:34:58.967Z,6.45
2017-11-07T00:35:25.093Z,6.54
2017-11-07T00:35:51.215Z,6.51
2017-11-07T00:36:17.331Z,6.59
2017-11-07T00:36:43.454Z,6.6
2017-11-07T00:37:09.572Z,6.54
2017-11-07T00:37:35.710Z,6.6
2017-11-07T00:38:01.834Z,6.6
2017-11-07T00:38:27.956Z,6.57
2017-11-07T00:38:54.074Z,6.64
2017-11-07T00:39:20.197Z,6.57
2017-11-07T00:39:46.332Z,6.72
2017-11-07T00:40:12.457Z,6.6
2017-11-07T00:40:38.573Z,6.6
2017-11-07T00:41:04.694Z,6.6
2017-11-07T00:41:30.818Z,6.57
2017-11-07T00:41:56.938Z,6.57
2017-11-07T00:42:23.056Z,6.48
2017-11-07T00:42:49.173Z,6.42
2017-11-07T00:43:15.300Z,6.38
2017-11-07T00:43:41.416Z,6.42
2017-11-07T00:44:07.539Z,6.42
2017-11-07T00:44:33.664Z,6.45
2017-11-07T00:44:59.776Z,6.39
2017-11-07T00:45:25.899Z,6.44
2017-11-07T00:45:52.015Z,6.49
2017-11-07T00:46:18.133Z,6.49
2017-11-07T00:46:44.257Z,6.48
2017-11-07T00:47:10.370Z,6.52
2017-11-07T00:47:36.498Z,6.56
2017-11-07T00:48:02.619Z,6.59
2017-11-07T00:48:28.737Z,6.63
2017-11-07T00:48:54.855Z,6.6
2017-11-07T00:49:20.979Z,6.57
2017-11-07T00:49:47.119Z,6.7
2017-11-07T00:50:13.221Z,6.72
2017-11-07T00:50:39.344Z,6.69
2017-11-07T00:51:05.456Z,6.69
2017-11-07T00:51:31.577Z,6.72
2017-11-07T00:51:57.698Z,6.75
2017-11-07T00:52:23.813Z,6.6
2017-11-07T00:52:49.938Z,6.64
2017-11-07T00:53:16.065Z,6.74
2017-11-07T00:53:42.180Z,6.64
2017-11-07T00:54:08.303Z,6.66
2017-11-07T00:54:34.423Z,6.64
2017-11-07T00:55:00.545Z,6.64
2017-11-07T00:55:26.660Z,6.62
2017-11-07T00:55:52.780Z,6.69
2017-11-07T00:56:18.900Z,6.6
2017-11-07T00:56:45.024Z,6.72
2017-11-07T00:57:11.130Z,6.57
2017-11-07T00:57:37.254Z,6.57
2017-11-07T00:58:03.371Z,6.6
2017-11-07T00:58:29.493Z,6.6
2017-11-07T00:58:55.604Z,6.48
2017-11-07T00:59:21.732Z,6.44
2017-11-07T00:59:47.857Z,6.46
2017-11-07T01:00:13.977Z,6.38
2017-11-07T01:00:40.096Z,6.39
2017-11-07T01:01:06.226Z,6.38
2017-11-07T01:01:32.336Z,6.35
2017-11-07T01:01:58.452Z,6.33
2017-11-07T01:02:24.570Z,6.33
2017-11-07T01:02:50.694Z,6.35
2017-11-07T01:03:16.817Z,6.35
2017-11-07T01:03:42.934Z,6.3
2017-11-07T01:04:09.068Z,6.35
2017-11-07T01:04:35.193Z,6.31
2017-11-07T01:05:01.308Z,6.39
2017-11-07T01:05:27.425Z,6.35
2017-11-07T01:05:53.548Z,6.28
2017-11-07T01:06:19.691Z,6.3
2017-11-07T01:06:45.814Z,6.26
2017-11-07T01:07:11.928Z,6.3
2017-11-07T01:07:38.053Z,6.28
2017-11-07T01:08:04.167Z,6.27
2017-11-07T01:08:30.296Z,6.22
2017-11-07T01:08:56.415Z,6.24
2017-11-07T01:09:22.532Z,6.26
2017-11-07T01:09:48.647Z,6.27
2017-11-07T01:10:14.771Z,6.28
2017-11-07T01:10:40.895Z,6.19
2017-11-07T01:11:07.011Z,6.28
2017-11-07T01:11:33.128Z,6.17
2017-11-07T01:11:59.254Z,6.05
2017-11-07T01:12:25.370Z,6.04
2017-11-07T01:12:51.493Z,6.09
2017-11-07T01:13:17.607Z,6.02
2017-11-07T01:13:43.730Z,6.11
2017-11-07T01:14:09.845Z,6.02
2017-11-07T01:14:35.968Z,5.89
2017-11-07T01:15:02.084Z,5.93
2017-11-07T01:15:28.210Z,5.93
2017-11-07T01:15:54.331Z,5.87
2017-11-07T01:16:20.468Z,5.84
2017-11-07T01:16:46.572Z,5.76
2017-11-07T01:17:12.681Z,5.73
2017-11-07T01:17:38.802Z,5.79
2017-11-07T01:18:04.925Z,5.8
2017-11-07T01:18:31.040Z,5.89
2017-11-07T01:18:57.163Z,5.89
2017-11-07T01:19:23.284Z,5.91
2017-11-07T01:19:49.399Z,5.99
2017-11-07T01:20:15.520Z,5.89
2017-11-07T01:20:41.641Z,5.94
2017-11-07T01:21:07.757Z,5.89
2017-11-07T01:21:33.881Z,5.9
2017-11-07T01:21:59.998Z,5.94
2017-11-07T01:22:26.116Z,5.89
2017-11-07T01:22:52.235Z,5.94
2017-11-07T01:23:18.352Z,6.04
2017-11-07T01:23:44.471Z,6.04
2017-11-07T01:24:10.587Z,6.02
2017-11-07T01:24:36.712Z,6.05
2017-11-07T01:25:02.834Z,6.11
2017-11-07T01:25:28.959Z,6.16
2017-11-07T01:25:55.074Z,6.17
2017-11-07T01:26:21.196Z,6.17
2017-11-07T01:26:47.313Z,6.12
2017-11-07T01:27:13.433Z,6.22
2017-11-07T01:27:39.579Z,6.08
2017-11-07T01:28:05.692Z,6.07
2017-11-07T01:28:31.815Z,6.17
2017-11-07T01:28:57.936Z,6.12
2017-11-07T01:29:24.047Z,6.17
2017-11-07T01:29:50.167Z,6.2
2017-11-07T01:30:16.312Z,6.07
2017-11-07T01:30:42.454Z,6.04
2017-11-07T01:31:08.572Z,6.11
2017-11-07T01:31:34.688Z,6.08
2017-11-07T01:32:00.812Z,6.09
2017-11-07T01:32:26.949Z,6.05
2017-11-07T01:32:53.072Z,6.05
2017-11-07T01:33:19.193Z,6.09
2017-11-07T01:33:45.309Z,6.09
2017-11-07T01:34:11.427Z,6.09
2017-11-07T01:34:37.567Z,6.02
2017-11-07T01:35:03.711Z,6.05
2017-11-07T01:35:29.823Z,6.08
2017-11-07T01:35:55.949Z,6.12
2017-11-07T01:36:22.063Z,6.04
2017-11-07T01:36:48.189Z,6.11
2017-11-07T01:37:14.312Z,6.09
2017-11-07T01:37:40.428Z,6.04
2017-11-07T01:38:06.553Z,6.01
2017-11-07T01:38:32.667Z,6.04
2017-11-07T01:38:58.782Z,6.02
2017-11-07T01:39:24.907Z,5.93
2017-11-07T01:39:51.044Z,5.86
2017-11-07T01:40:17.163Z,5.91
2017-11-07T01:40:43.286Z,5.87
2017-11-07T01:41:09.401Z,5.89
2017-11-07T01:41:35.522Z,5.87
2017-11-07T01:42:01.647Z,5.82
2017-11-07T01:42:27.758Z,5.84
2017-11-07T01:42:53.881Z,5.84
2017-11-07T01:43:19.994Z,5.89
2017-11-07T01:43:46.120Z,5.93
2017-11-07T01:44:12.241Z,5.97
2017-11-07T01:44:38.381Z,5.89
2017-11-07T01:45:04.495Z,6.02
2017-11-07T01:45:30.615Z,5.94
2017-11-07T01:45:56.741Z,6.02
2017-11-07T01:46:22.863Z,5.97
2017-11-07T01:46:48.998Z,5.94
2017-11-07T01:47:15.118Z,5.93
2017-11-07T01:47:41.241Z,5.93
2017-11-07T01:48:07.349Z,5.86
2017-11-07T01:48:33.472Z,5.84
2017-11-07T01:48:59.594Z,5.8
2017-11-07T01:49:25.720Z,5.82
2017-11-07T01:49:51.844Z,5.84
2017-11-07T01:50:17.959Z,5.82
2017-11-07T01:50:44.108Z,5.93
2017-11-07T01:51:10.223Z,5.9
2017-11-07T01:51:36.336Z,5.91
2017-11-07T01:52:02.457Z,5.99
2017-11-07T01:52:28.597Z,5.97
2017-11-07T01:52:54.722Z,5.98
2017-11-07T01:53:20.836Z,6.05
2017-11-07T01:53:46.959Z,6.12
2017-11-07T01:54:13.081Z,6.09
2017-11-07T01:54:39.196Z,6.09
2017-11-07T01:55:05.327Z,6.12
2017-11-07T01:55:31.437Z,6.16
2017-11-07T01:55:57.554Z,6.19
2017-11-07T01:56:23.677Z,6.2
2017-11-07T01:56:49.792Z,6.2
2017-11-07T01:57:15.919Z,6.16
2017-11-07T01:57:42.039Z,6.22
2017-11-07T01:58:08.155Z,6.17
2017-11-07T01:58:34.270Z,6.09
2017-11-07T01:59:06.657Z,6.12
2017-11-07T01:59:32.773Z,6.09
2017-11-07T01:59:58.897Z,6.04
2017-11-07T02:00:25.012Z,6.14
2017-11-07T02:00:51.129Z,6.09
2017-11-07T02:01:17.254Z,6.08
2017-11-07T02:01:43.369Z,6.07
2017-11-07T02:02:09.493Z,6.05
2017-11-07T02:02:35.615Z,6.08
2017-11-07T02:03:01.730Z,6.08
2017-11-07T02:03:27.858Z,6.17
2017-11-07T02:03:53.974Z,6.12
2017-11-07T02:04:20.090Z,6.08
2017-11-07T02:04:46.207Z,6.08
2017-11-07T02:05:12.332Z,6.02
2017-11-07T02:05:38.446Z,6.09
2017-11-07T02:06:04.570Z,6.05
2017-11-07T02:06:30.719Z,6.04
2017-11-07T02:06:56.827Z,6.02
2017-11-07T02:07:22.945Z,6.07
2017-11-07T02:07:49.091Z,5.99
2017-11-07T02:08:15.190Z,6.04
2017-11-07T02:08:41.304Z,6.04
2017-11-07T02:09:07.430Z,6.07
2017-11-07T02:09:33.555Z,6.02
2017-11-07T02:09:59.672Z,6.04
2017-11-07T02:10:25.788Z,6.04
2017-11-07T02:10:51.911Z,5.99
2017-11-07T02:11:18.027Z,5.93
2017-11-07T02:11:44.142Z,5.97
2017-11-07T02:12:10.266Z,5.91
2017-11-07T02:12:36.386Z,5.93
2017-11-07T02:13:02.509Z,5.86
2017-11-07T02:13:28.632Z,6.01
2017-11-07T02:13:54.749Z,5.97
2017-11-07T02:14:20.887Z,5.87
2017-11-07T02:14:47.014Z,5.89
2017-11-07T02:15:13.144Z,5.86
2017-11-07T02:15:39.253Z,5.79
2017-11-07T02:16:05.373Z,5.8
2017-11-07T02:16:31.499Z,5.75
2017-11-07T02:16:57.615Z,5.79
2017-11-07T02:17:23.738Z,5.79
2017-11-07T02:17:49.857Z,5.79
2017-11-07T02:18:15.974Z,5.76
2017-11-07T02:18:42.099Z,5.79
2017-11-07T02:19:08.218Z,5.79
2017-11-07T02:19:34.338Z,5.72
2017-11-07T02:20:00.455Z,5.89
2017-11-07T02:20:26.577Z,5.79
2017-11-07T02:20:52.687Z,5.75
2017-11-07T02:21:18.807Z,5.8
2017-11-07T02:21:44.919Z,5.72
2017-11-07T02:22:11.043Z,5.71
2017-11-07T02:22:37.162Z,5.79
2017-11-07T02:23:03.282Z,5.73
2017-11-07T02:23:29.408Z,5.75
2017-11-07T02:23:55.534Z,5.73
2017-11-07T02:24:21.640Z,5.79
2017-11-07T02:24:47.766Z,5.83
2017-11-07T02:25:13.881Z,5.87
2017-11-07T02:25:40.007Z,5.86
2017-11-07T02:26:06.118Z,5.89
2017-11-07T02:26:32.243Z,5.91
2017-11-07T02:26:58.356Z,5.84
2017-11-07T02:27:24.481Z,5.97
2017-11-07T02:27:50.602Z,6.05
2017-11-07T02:28:16.716Z,6.02
2017-11-07T02:28:42.839Z,5.98
2017-11-07T02:29:08.960Z,6.04
2017-11-07T02:29:35.075Z,6.02
2017-11-07T02:30:01.194Z,6.08
2017-11-07T02:30:27.318Z,6.07
2017-11-07T02:30:53.435Z,6.07
2017-11-07T02:31:19.557Z,6.11
2017-11-07T02:31:45.680Z,6.17
2017-11-07T02:32:11.797Z,6.08
2017-11-07T02:32:37.940Z,6.12
2017-11-07T02:33:04.057Z,6.05
2017-11-07T02:33:30.180Z,6.12
2017-11-07T02:33:56.299Z,6.12
2017-11-07T02:34:22.420Z,6.16
2017-11-07T02:34:48.536Z,6.05
2017-11-07T02:35:14.652Z,6.01
2017-11-07T02:35:40.777Z,5.87
2017-11-07T02:36:06.898Z,5.82
2017-11-07T02:36:33.020Z,5.82
2017-11-07T02:36:59.134Z,5.83
2017-11-07T02:37:25.257Z,5.82
2017-11-07T02:37:51.378Z,5.84
2017-11-07T02:38:17.493Z,5.9
2017-11-07T02:38:43.605Z,5.86
2017-11-07T02:39:09.729Z,5.76
2017-11-07T02:39:35.845Z,5.68
2017-11-07T02:40:01.966Z,5.79
2017-11-07T02:40:28.087Z,5.73
2017-11-07T02:40:54.208Z,5.73
2017-11-07T02:41:20.326Z,5.8
2017-11-07T02:41:46.439Z,5.69
2017-11-07T02:42:12.566Z,5.79
2017-11-07T02:42:38.686Z,5.69
2017-11-07T02:43:04.803Z,5.72
2017-11-07T02:43:30.924Z,5.83
2017-11-07T02:43:57.044Z,5.76
2017-11-07T02:44:23.161Z,5.8
2017-11-07T02:44:49.275Z,5.69
2017-11-07T02:45:15.402Z,5.68
2017-11-07T02:45:41.513Z,5.68
2017-11-07T02:46:07.642Z,5.65
2017-11-07T02:46:33.763Z,5.69
2017-11-07T02:46:59.875Z,5.72
2017-11-07T02:47:25.993Z,5.79
2017-11-07T02:47:52.113Z,5.73
2017-11-07T02:48:18.245Z,5.66
2017-11-07T02:48:44.362Z,5.71
2017-11-07T02:49:10.478Z,5.65
2017-11-07T02:49:36.601Z,5.76
2017-11-07T02:50:02.724Z,5.71
2017-11-07T02:50:28.842Z,5.68
2017-11-07T02:50:54.956Z,5.68
2017-11-07T02:51:21.081Z,5.75
2017-11-07T02:51:47.215Z,5.69
2017-11-07T02:52:13.336Z,5.66
2017-11-07T02:52:39.460Z,5.73
2017-11-07T02:53:05.573Z,5.66
2017-11-07T02:53:31.698Z,5.64
2017-11-07T02:53:57.814Z,5.59
2017-11-07T02:54:23.931Z,5.57
2017-11-07T02:54:50.056Z,5.57
2017-11-07T02:55:16.170Z,5.65
2017-11-07T02:55:42.299Z,5.66
2017-11-07T02:56:08.411Z,5.57
2017-11-07T02:56:34.534Z,5.64
2017-11-07T02:57:00.659Z,5.57
2017-11-07T02:57:26.772Z,5.57
2017-11-07T02:57:52.892Z,5.66
2017-11-07T02:58:19.011Z,5.72
2017-11-07T02:58:45.133Z,5.66
2017-11-07T02:59:11.250Z,5.72
2017-11-07T02:59:37.396Z,5.66
2017-11-07T03:00:03.512Z,5.71
2017-11-07T03:00:29.643Z,5.64
2017-11-07T03:00:55.754Z,5.66
2017-11-07T03:01:21.873Z,5.64
2017-11-07T03:01:47.998Z,5.62
2017-11-07T03:02:14.123Z,5.73
2017-11-07T03:02:40.237Z,5.72
2017-11-07T03:03:06.356Z,5.69
2017-11-07T03:03:32.472Z,5.76
2017-11-07T03:03:58.589Z,5.73
2017-11-07T03:04:24.713Z,5.76
2017-11-07T03:04:50.830Z,5.73
2017-11-07T03:05:16.954Z,5.71
2017-11-07T03:05:43.069Z,5.73
2017-11-07T03:06:09.187Z,5.79
2017-11-07T03:06:35.310Z,5.84
2017-11-07T03:07:01.424Z,5.84
2017-11-07T03:07:27.550Z,5.87
2017-11-07T03:07:53.673Z,5.91
2017-11-07T03:08:19.787Z,5.83
2017-11-07T03:08:45.910Z,5.94
2017-11-07T03:09:12.028Z,5.89
2017-11-07T03:09:38.142Z,5.89
2017-11-07T03:10:04.260Z,5.97
2017-11-07T03:10:30.379Z,5.94
2017-11-07T03:10:56.496Z,5.99
2017-11-07T03:11:22.617Z,6.04
2017-11-07T03:11:48.738Z,6.04
2017-11-07T03:12:14.857Z,5.98
2017-11-07T03:12:40.976Z,6.04
2017-11-07T03:13:07.100Z,6.04
2017-11-07T03:13:33.214Z,6.02
2017-11-07T03:13:59.336Z,5.91
2017-11-07T03:14:25.452Z,5.82
2017-11-07T03:14:51.574Z,5.79
2017-11-07T03:15:17.694Z,5.83
2017-11-07T03:15:43.815Z,5.76
2017-11-07T03:16:09.932Z,5.75
2017-11-07T03:16:36.052Z,5.65
2017-11-07T03:17:02.178Z,5.65
2017-11-07T03:17:28.291Z,5.72
2017-11-07T03:17:54.415Z,5.73
2017-11-07T03:18:20.528Z,5.71
2017-11-07T03:18:46.646Z,5.71
2017-11-07T03:19:12.772Z,5.64
2017-11-07T03:19:38.890Z,5.66
2017-11-07T03:20:05.005Z,5.68
2017-11-07T03:20:31.143Z,5.66
2017-11-07T03:20:57.270Z,5.62
2017-11-07T03:21:23.387Z,5.61
2017-11-07T03:21:49.509Z,5.68
2017-11-07T03:22:15.625Z,5.66
2017-11-07T03:22:41.750Z,5.65
2017-11-07T03:23:07.863Z,5.59
2017-11-07T03:23:33.984Z,5.51
2017-11-07T03:24:00.103Z,5.56
2017-11-07T03:24:26.218Z,5.54
2017-11-07T03:24:52.346Z,5.57
2017-11-07T03:25:18.457Z,5.48
2017-11-07T03:25:44.589Z,5.43
2017-11-07T03:26:10.707Z,5.41
2017-11-07T03:26:36.819Z,5.43
2017-11-07T03:27:02.944Z,5.33
2017-11-07T03:27:29.082Z,5.33
2017-11-07T03:27:55.190Z,5.32
2017-11-07T03:28:21.305Z,5.36
2017-11-07T03:28:47.426Z,5.35
2017-11-07T03:29:13.546Z,5.38
2017-11-07T03:29:39.665Z,5.35
2017-11-07T03:30:05.787Z,5.38
2017-11-07T03:30:31.902Z,5.33
2017-11-07T03:30:58.022Z,5.25
2017-11-07T03:31:24.164Z,5.28
2017-11-07T03:31:50.291Z,5.25
2017-11-07T03:32:16.400Z,5.2
2017-11-07T03:32:42.525Z,5.08
2017-11-07T03:33:08.641Z,5.14
2017-11-07T03:33:34.771Z,5.02
2017-11-07T03:34:00.885Z,5.29
2017-11-07T03:34:27.009Z,5.18
2017-11-07T03:34:53.125Z,5.18
2017-11-07T03:35:19.239Z,5.2
2017-11-07T03:35:45.363Z,5.08
2017-11-07T03:36:11.478Z,5.14
2017-11-07T03:36:37.599Z,5.14
2017-11-07T03:37:03.724Z,5.15
2017-11-07T03:37:29.841Z,5.17
2017-11-07T03:37:55.960Z,5.14
2017-11-07T03:38:22.084Z,5.11
2017-11-07T03:38:48.205Z,5.12
2017-11-07T03:39:14.323Z,5.23
2017-11-07T03:39:40.438Z,5.32
2017-11-07T03:40:06.565Z,5.26
2017-11-07T03:40:32.681Z,5.33
2017-11-07T03:40:58.796Z,5.46
2017-11-07T03:41:24.911Z,5.35
2017-11-07T03:41:51.038Z,5.41
2017-11-07T03:42:17.161Z,5.41
2017-11-07T03:42:43.275Z,5.41
2017-11-07T03:43:09.397Z,5.44
2017-11-07T03:43:35.516Z,5.5
2017-11-07T03:44:01.660Z,5.5
2017-11-07T03:44:27.777Z,5.53
2017-11-07T03:44:53.891Z,5.51
2017-11-07T03:45:20.017Z,5.53
2017-11-07T03:45:46.138Z,5.5
2017-11-07T03:46:12.257Z,5.56
2017-11-07T03:46:38.375Z,5.51
2017-11-07T03:47:04.499Z,5.53
2017-11-07T03:47:30.616Z,5.61
2017-11-07T03:47:56.739Z,5.56
2017-11-07T03:48:22.851Z,5.62
2017-11-07T03:48:48.969Z,5.69
2017-11-07T03:49:15.092Z,5.62
2017-11-07T03:49:41.214Z,5.66
2017-11-07T03:50:07.330Z,5.57
2017-11-07T03:50:33.446Z,5.62
2017-11-07T03:50:59.569Z,5.57
2017-11-07T03:51:25.686Z,5.66
2017-11-07T03:51:51.800Z,5.65
2017-11-07T03:52:17.926Z,5.61
2017-11-07T03:52:44.054Z,5.64
2017-11-07T03:53:10.169Z,5.56
2017-11-07T03:53:36.288Z,5.57
2017-11-07T03:54:02.408Z,5.47
2017-11-07T03:54:28.518Z,5.41
2017-11-07T03:54:54.642Z,5.48
2017-11-07T03:55:20.760Z,5.46
2017-11-07T03:55:46.878Z,5.36
2017-11-07T03:56:12.994Z,5.51
2017-11-07T03:56:39.113Z,5.54
2017-11-07T03:57:05.233Z,5.5
2017-11-07T03:57:31.353Z,5.59
2017-11-07T03:57:57.472Z,5.56
2017-11-07T03:58:23.591Z,5.56
2017-11-07T03:58:49.713Z,5.57
2017-11-07T03:59:15.834Z,5.53
2017-11-07T03:59:41.950Z,5.51
2017-11-07T04:00:08.081Z,5.59
2017-11-07T04:00:34.195Z,5.47
2017-11-07T04:01:00.310Z,5.41
2017-11-07T04:01:26.433Z,5.39
2017-11-07T04:01:52.558Z,5.32
2017-11-07T04:02:18.658Z,5.38
2017-11-07T04:02:44.780Z,5.46
2017-11-07T04:03:10.904Z,5.33
2017-11-07T04:03:37.022Z,5.33
2017-11-07T04:04:03.146Z,5.38
2017-11-07T04:04:29.265Z,5.43
2017-11-07T04:04:55.380Z,5.38
2017-11-07T04:05:21.503Z,5.39
2017-11-07T04:05:47.620Z,5.38
2017-11-07T04:06:13.738Z,5.3
2017-11-07T04:06:39.864Z,5.25
2017-11-07T04:07:05.983Z,5.32
2017-11-07T04:07:32.099Z,5.28
2017-11-07T04:07:58.221Z,5.23
2017-11-07T04:08:24.343Z,5.2
2017-11-07T04:08:50.457Z,5.14
2017-11-07T04:09:16.575Z,5.08
2017-11-07T04:09:42.700Z,5.25
2017-11-07T04:10:08.819Z,5.18
2017-11-07T04:10:34.934Z,5.17
2017-11-07T04:11:01.058Z,5.18
2017-11-07T04:11:27.171Z,5.32
2017-11-07T04:11:53.318Z,5.28
2017-11-07T04:12:19.433Z,5.26
2017-11-07T04:12:45.550Z,5.17
2017-11-07T04:13:11.674Z,5.18
2017-11-07T04:13:37.788Z,5.1
2017-11-07T04:14:03.909Z,5.1
2017-11-07T04:14:30.032Z,5.08
2017-11-07T04:14:56.148Z,5.17
2017-11-07T04:15:22.293Z,5.11
2017-11-07T04:15:48.409Z,5.25
2017-11-07T04:16:14.527Z,5.18
2017-11-07T04:16:40.653Z,5.15
2017-11-07T04:17:06.768Z,5.17
2017-11-07T04:17:32.891Z,5.18
2017-11-07T04:17:59.014Z,5.14
2017-11-07T04:18:25.133Z,5.2
2017-11-07T04:18:51.244Z,5.2
2017-11-07T04:19:17.371Z,5.2
2017-11-07T04:19:43.490Z,5.29
2017-11-07T04:20:09.606Z,5.26
2017-11-07T04:20:35.731Z,5.32
2017-11-07T04:21:01.845Z,5.32
2017-11-07T04:21:27.959Z,5.33
2017-11-07T04:21:54.079Z,5.39
2017-11-07T04:22:20.193Z,5.33
2017-11-07T04:22:46.323Z,5.38
2017-11-07T04:23:12.444Z,5.39
2017-11-07T04:23:38.556Z,5.32
2017-11-07T04:24:04.680Z,5.32
2017-11-07T04:24:30.799Z,5.39
2017-11-07T04:24:56.921Z,5.36
2017-11-07T04:25:23.037Z,5.35
2017-11-07T04:25:49.172Z,5.53
2017-11-07T04:26:15.295Z,5.51
2017-11-07T04:26:41.429Z,5.48
2017-11-07T04:27:07.528Z,5.51
2017-11-07T04:27:33.653Z,5.54
2017-11-07T04:27:59.771Z,5.59
2017-11-07T04:28:25.891Z,5.56
2017-11-07T04:28:52.013Z,5.51
2017-11-07T04:29:18.132Z,5.57
2017-11-07T04:29:44.249Z,5.57
2017-11-07T04:30:10.373Z,5.54
2017-11-07T04:30:36.497Z,5.53
2017-11-07T04:31:02.608Z,5.59
2017-11-07T04:31:28.732Z,5.54
2017-11-07T04:31:54.853Z,5.57
2017-11-07T04:32:20.973Z,5.54
2017-11-07T04:32:47.089Z,5.5
2017-11-07T04:33:13.212Z,5.35
2017-11-07T04:33:39.332Z,5.35
2017-11-07T04:34:05.448Z,5.39
2017-11-07T04:34:31.570Z,5.38
2017-11-07T04:34:57.688Z,5.39
2017-11-07T04:35:23.803Z,5.44
2017-11-07T04:35:49.922Z,5.35
2017-11-07T04:36:16.042Z,5.35
2017-11-07T04:36:42.182Z,5.35
2017-11-07T04:37:08.299Z,5.43
2017-11-07T04:37:34.423Z,5.38
2017-11-07T04:38:00.536Z,5.35
2017-11-07T04:38:26.681Z,5.36
2017-11-07T04:38:52.804Z,5.41
2017-11-07T04:39:18.924Z,5.36
2017-11-07T04:39:45.037Z,5.38
2017-11-07T04:40:11.183Z,5.39
2017-11-07T04:40:37.304Z,5.39
2017-11-07T04:41:03.421Z,5.41
2017-11-07T04:41:29.560Z,5.43
2017-11-07T04:41:55.673Z,5.43
2017-11-07T04:42:21.785Z,5.39
2017-11-07T04:42:47.909Z,5.41
2017-11-07T04:43:14.036Z,5.43
2017-11-07T04:43:40.149Z,5.39
2017-11-07T04:44:06.273Z,5.33
2017-11-07T04:44:32.395Z,5.41
2017-11-07T04:44:58.510Z,5.41
2017-11-07T04:45:24.636Z,5.41
2017-11-07T04:45:50.761Z,5.3
2017-11-07T04:46:16.871Z,5.32
2017-11-07T04:46:42.993Z,5.33
2017-11-07T04:47:09.102Z,5.38
2017-11-07T04:47:35.226Z,5.29
2017-11-07T04:48:01.345Z,5.36
2017-11-07T04:48:27.471Z,5.36
2017-11-07T04:48:53.589Z,5.36
2017-11-07T04:49:19.711Z,5.33
2017-11-07T04:49:45.822Z,5.35
2017-11-07T04:50:11.953Z,5.36
2017-11-07T04:50:38.063Z,5.39
2017-11-07T04:51:04.185Z,5.44
2017-11-07T04:51:30.304Z,5.41
2017-11-07T04:51:56.430Z,5.39
2017-11-07T04:52:22.546Z,5.41
2017-11-07T04:52:48.660Z,5.51
2017-11-07T04:53:14.784Z,5.41
2017-11-07T04:53:40.908Z,5.35
2017-11-07T04:54:07.023Z,5.32
2017-11-07T04:54:33.162Z,5.39
2017-11-07T04:54:59.277Z,5.39
2017-11-07T04:55:25.404Z,5.47
2017-11-07T04:55:51.520Z,5.41
2017-11-07T04:56:17.643Z,5.5
2017-11-07T04:56:43.757Z,5.44
2017-11-07T04:57:09.874Z,5.3
2017-11-07T04:57:36.000Z,5.35
2017-11-07T04:58:02.115Z,5.35
2017-11-07T04:58:28.237Z,5.41
2017-11-07T04:58:54.379Z,5.44
2017-11-07T04:59:20.495Z,5.44
2017-11-07T04:59:46.617Z,5.39
2017-11-07T05:00:12.755Z,5.39
2017-11-07T05:00:38.876Z,5.43
2017-11-07T05:01:04.988Z,5.41
2017-11-07T05:01:31.112Z,5.38
2017-11-07T05:01:57.226Z,5.35
2017-11-07T05:02:23.347Z,5.38
2017-11-07T05:02:49.471Z,5.33
2017-11-07T05:03:15.588Z,5.35
2017-11-07T05:03:41.707Z,5.35
2017-11-07T05:04:07.829Z,5.29
2017-11-07T05:04:33.944Z,5.28
2017-11-07T05:05:00.068Z,5.29
2017-11-07T05:05:26.187Z,5.29
2017-11-07T05:05:52.305Z,5.3
2017-11-07T05:06:18.418Z,5.32
2017-11-07T05:06:44.537Z,5.25
2017-11-07T05:07:10.656Z,5.29
2017-11-07T05:07:36.782Z,5.32
2017-11-07T05:08:02.897Z,5.29
2017-11-07T05:08:29.026Z,5.35
2017-11-07T05:08:55.139Z,5.29
2017-11-07T05:09:21.279Z,5.23
2017-11-07T05:09:47.401Z,5.28
2017-11-07T05:10:13.543Z,5.26
2017-11-07T05:10:39.661Z,5.29
2017-11-07T05:11:05.773Z,5.32
2017-11-07T05:11:31.898Z,5.35
2017-11-07T05:11:58.010Z,5.3
2017-11-07T05:12:24.129Z,5.29
2017-11-07T05:12:50.248Z,5.35
2017-11-07T05:13:16.375Z,5.36
2017-11-07T05:13:42.499Z,5.35
2017-11-07T05:14:08.616Z,5.35
2017-11-07T05:14:34.737Z,5.29
2017-11-07T05:15:00.851Z,5.29
2017-11-07T05:15:26.974Z,5.25
2017-11-07T05:15:53.089Z,5.32
2017-11-07T05:16:19.211Z,5.35
2017-11-07T05:16:45.331Z,5.33
2017-11-07T05:17:11.444Z,5.3
2017-11-07T05:17:37.568Z,5.25
2017-11-07T05:18:03.693Z,5.14
2017-11-07T05:18:29.803Z,5.2
2017-11-07T05:18:55.929Z,5.2
2017-11-07T05:19:22.043Z,5.2
2017-11-07T05:19:48.168Z,5.21
2017-11-07T05:20:14.285Z,5.14
2017-11-07T05:20:40.397Z,5.23
2017-11-07T05:21:06.528Z,5.2
2017-11-07T05:21:32.642Z,5.18
2017-11-07T05:21:58.766Z,5.18
2017-11-07T05:22:24.880Z,5.25
2017-11-07T05:22:51.001Z,5.2
2017-11-07T05:23:17.114Z,5.17
2017-11-07T05:23:43.237Z,5.05
2017-11-07T05:24:09.354Z,5.11
2017-11-07T05:24:35.476Z,5.1
2017-11-07T05:25:01.612Z,5.1
2017-11-07T05:25:27.745Z,5.02
2017-11-07T05:25:53.854Z,4.89
2017-11-07T05:26:19.970Z,4.99
2017-11-07T05:26:46.093Z,4.89
2017-11-07T05:27:12.205Z,4.93
2017-11-07T05:27:38.331Z,4.9
2017-11-07T05:28:04.468Z,4.96
2017-11-07T05:28:30.586Z,4.87
2017-11-07T05:28:56.704Z,4.92
2017-11-07T05:29:22.843Z,4.89
2017-11-07T05:29:48.989Z,4.87
2017-11-07T05:30:15.105Z,4.9
2017-11-07T05:30:41.234Z,4.8
2017-11-07T05:31:07.348Z,4.8
2017-11-07T05:31:33.481Z,4.77
2017-11-07T05:31:59.601Z,4.74
2017-11-07T05:32:25.715Z,4.58
2017-11-07T05:32:51.826Z,4.63
2017-11-07T05:33:17.944Z,4.41
2017-11-07T05:33:44.065Z,4.35
2017-11-07T05:34:10.190Z,4.38
2017-11-07T05:34:36.301Z,4.32
2017-11-07T05:35:02.420Z,4.37
2017-11-07T05:35:28.537Z,4.24
2017-11-07T05:35:54.656Z,4.31
2017-11-07T05:36:20.780Z,4.28
2017-11-07T05:36:46.893Z,4.24
2017-11-07T05:37:13.015Z,4.2
2017-11-07T05:37:39.138Z,4.28
2017-11-07T05:38:05.247Z,4.37
2017-11-07T05:38:31.372Z,4.38
2017-11-07T05:38:57.484Z,4.3
2017-11-07T05:39:23.608Z,4.42
2017-11-07T05:39:49.748Z,4.38
2017-11-07T05:40:15.867Z,4.37
2017-11-07T05:40:41.989Z,4.34
2017-11-07T05:41:08.102Z,4.32
2017-11-07T05:41:34.228Z,4.32
2017-11-07T05:42:00.345Z,4.35
2017-11-07T05:42:26.469Z,4.38
2017-11-07T05:42:52.582Z,4.31
2017-11-07T05:43:18.701Z,4.35
2017-11-07T05:43:44.824Z,4.32
2017-11-07T05:44:10.940Z,4.35
2017-11-07T05:44:37.064Z,4.37
2017-11-07T05:45:03.186Z,4.42
2017-11-07T05:45:29.297Z,4.44
2017-11-07T05:45:55.430Z,4.41
2017-11-07T05:46:21.561Z,4.42
2017-11-07T05:46:47.680Z,4.38
2017-11-07T05:47:13.804Z,4.31
2017-11-07T05:47:39.918Z,4.42
2017-11-07T05:48:06.046Z,4.49
2017-11-07T05:48:32.165Z,4.42